Time;durP1;ratioP1;P1;durP2;ratioP2;P2;SDS_P1;SDS_P2;PMS_P1;PMS_P2;Temp;Humidity;BMP_temperature;BMP_pressure;BME280_temperature;BME280_humidity;BME280_pressure;Samples;Min_cycle;Max_cycle;Signal;HPM_P1;HPM_P2
2021/05/30 00:00:32;;;;;;;21.77;8.40;;;10.20;99.90;;;;;;5033749;28;20080;-71
2021/05/30 00:02:58;;;;;;;19.98;7.60;;;10.20;99.90;;;;;;5044149;28;20049;-71
2021/05/30 00:05:23;;;;;;;17.08;7.80;;;10.20;99.90;;;;;;5041400;28;20041;-70
2021/05/30 00:07:53;;;;;;;21.65;7.93;;;10.10;99.90;;;;;;5042270;28;20056;-71
2021/05/30 00:10:19;;;;;;;17.38;7.88;;;10.10;99.90;;;;;;5042285;28;20109;-70
2021/05/30 00:12:45;;;;;;;21.20;7.63;;;10.10;99.90;;;;;;5037152;28;20038;-71
2021/05/30 00:15:11;;;;;;;21.73;8.00;;;10.10;99.90;;;;;;5044013;28;20044;-71
2021/05/30 00:17:37;;;;;;;22.52;8.95;;;10.10;99.90;;;;;;5043186;28;20943;-71
2021/05/30 00:20:06;;;;;;;21.45;9.23;;;10.10;99.90;;;;;;5040761;28;20045;-72
2021/05/30 00:22:32;;;;;;;16.17;7.25;;;10.10;99.90;;;;;;5044029;28;20045;-70
2021/05/30 00:24:58;;;;;;;18.67;7.88;;;10.10;99.90;;;;;;5043640;28;20106;-71
2021/05/30 00:27:24;;;;;;;20.20;8.88;;;10.10;99.90;;;;;;5044236;28;20041;-70
2021/05/30 00:29:50;;;;;;;18.40;9.05;;;10.10;99.90;;;;;;5043847;28;20049;-71
2021/05/30 00:32:16;;;;;;;28.75;10.75;;;10.20;99.90;;;;;;5043668;28;20049;-70
2021/05/30 00:34:42;;;;;;;23.42;10.27;;;10.20;99.90;;;;;;5043559;28;20044;-72
2021/05/30 00:37:08;;;;;;;29.10;11.43;;;10.10;99.90;;;;;;5043645;28;20073;-70
2021/05/30 00:39:33;;;;;;;22.83;10.93;;;10.20;99.90;;;;;;5043325;28;20117;-71
2021/05/30 00:41:59;;;;;;;24.83;9.13;;;10.20;99.90;;;;;;5042715;28;20049;-71
2021/05/30 00:44:27;;;;;;;20.80;9.55;;;10.10;99.90;;;;;;5043762;28;20052;-70
2021/05/30 00:46:54;;;;;;;26.88;11.27;;;10.20;99.90;;;;;;5043576;28;20041;-71
2021/05/30 00:49:21;;;;;;;25.48;11.60;;;10.20;99.90;;;;;;5043685;28;20440;-71
2021/05/30 00:51:46;;;;;;;30.52;10.75;;;10.20;99.90;;;;;;5043884;28;20076;-71
2021/05/30 00:54:13;;;;;;;24.50;10.93;;;10.30;99.90;;;;;;5043498;28;20041;-71
2021/05/30 00:56:41;;;;;;;24.50;12.25;;;10.20;99.90;;;;;;5043405;28;20057;-72
2021/05/30 00:59:08;;;;;;;22.25;10.55;;;10.20;99.90;;;;;;5043576;28;20060;-71
2021/05/30 01:01:34;;;;;;;21.52;11.52;;;10.10;99.90;;;;;;5043348;28;20041;-69
2021/05/30 01:04:00;;;;;;;21.90;10.85;;;10.10;99.90;;;;;;5043867;28;20045;-68
2021/05/30 01:06:27;;;;;;;25.33;11.38;;;10.10;99.90;;;;;;5043642;28;20103;-72
2021/05/30 01:08:54;;;;;;;25.95;10.95;;;10.10;99.90;;;;;;5043850;28;20046;-72
2021/05/30 01:11:23;;;;;;;24.58;10.32;;;10.20;99.90;;;;;;5043484;28;20133;-70
2021/05/30 01:13:54;;;;;;;25.80;11.45;;;10.10;99.90;;;;;;5042847;28;20049;-70
2021/05/30 01:16:21;;;;;;;22.27;10.95;;;10.10;99.90;;;;;;5043971;28;20068;-71
2021/05/30 01:18:56;;;;;;;31.45;12.32;;;10.10;99.90;;;;;;5043381;28;20052;-72
2021/05/30 01:21:22;;;;;;;24.98;12.30;;;10.10;99.90;;;;;;5043128;28;20053;-72
2021/05/30 01:23:52;;;;;;;26.08;10.43;;;10.20;99.90;;;;;;5042095;28;20075;-71
2021/05/30 01:26:19;;;;;;;25.92;10.68;;;10.10;99.90;;;;;;5042812;28;20099;-71
2021/05/30 01:28:44;;;;;;;23.13;10.07;;;10.10;99.90;;;;;;5042859;28;20067;-71
2021/05/30 01:31:10;;;;;;;21.17;10.02;;;10.10;99.90;;;;;;5043076;28;20049;-72
2021/05/30 01:33:36;;;;;;;23.83;11.32;;;10.10;99.90;;;;;;5043002;28;20045;-70
2021/05/30 01:36:03;;;;;;;24.00;10.88;;;10.10;99.90;;;;;;5042673;28;20421;-70
2021/05/30 01:38:29;;;;;;;26.42;12.32;;;10.00;99.90;;;;;;5042374;28;20041;-70
2021/05/30 01:40:55;;;;;;;25.45;12.30;;;10.00;99.90;;;;;;5042827;28;20037;-69
2021/05/30 01:43:21;;;;;;;24.85;13.07;;;10.00;99.90;;;;;;5042753;28;20076;-71
2021/05/30 01:45:46;;;;;;;24.58;13.82;;;10.00;99.90;;;;;;5042758;28;20041;-71
2021/05/30 01:48:12;;;;;;;23.88;13.18;;;10.00;99.90;;;;;;5042804;28;20049;-71
2021/05/30 01:50:38;;;;;;;29.02;12.75;;;10.00;99.90;;;;;;5042949;28;20092;-70
2021/05/30 01:53:10;;;;;;;31.33;13.75;;;10.00;99.90;;;;;;5046229;28;20103;-70
2021/05/30 01:58:14;;;;;;;26.50;13.23;;;10.00;99.90;;;;;;5046151;28;20053;-70
2021/05/30 02:00:39;;;;;;;27.73;13.65;;;10.00;99.90;;;;;;5046357;28;20056;-71
2021/05/30 02:03:07;;;;;;;27.75;16.55;;;10.00;99.90;;;;;;5046201;28;20041;-71
2021/05/30 02:05:34;;;;;;;30.35;15.10;;;10.00;99.90;;;;;;5046041;28;20045;-71
2021/05/30 02:08:00;;;;;;;24.63;13.97;;;10.10;99.90;;;;;;5046521;28;20445;-70
2021/05/30 02:10:27;;;;;;;35.10;15.85;;;10.00;99.90;;;;;;5045960;28;20060;-72
2021/05/30 02:12:55;;;;;;;33.67;15.43;;;10.00;99.90;;;;;;5046130;28;20059;-71
2021/05/30 02:15:22;;;;;;;27.80;14.48;;;10.00;99.90;;;;;;5045975;28;20045;-71
2021/05/30 02:17:48;;;;;;;25.35;15.10;;;10.00;99.90;;;;;;5045982;28;20503;-71
2021/05/30 02:20:16;;;;;;;23.75;12.50;;;10.10;99.90;;;;;;5046158;28;20037;-71
2021/05/30 02:22:43;;;;;;;26.70;13.50;;;10.10;99.90;;;;;;5046225;28;20041;-71
2021/05/30 02:25:10;;;;;;;29.50;12.70;;;10.00;99.90;;;;;;5045713;28;20045;-71
2021/05/30 02:27:37;;;;;;;30.35;11.75;;;10.00;99.90;;;;;;5046222;28;20045;-71
2021/05/30 02:30:04;;;;;;;21.30;10.95;;;9.90;99.90;;;;;;5045378;28;20049;-71
2021/05/30 02:32:30;;;;;;;28.35;11.23;;;9.90;99.90;;;;;;5045770;28;20048;-71
2021/05/30 02:34:55;;;;;;;26.20;11.85;;;9.90;99.90;;;;;;5045849;28;20172;-71
2021/05/30 02:37:21;;;;;;;26.08;11.27;;;9.90;99.90;;;;;;5045625;28;20529;-71
2021/05/30 02:39:47;;;;;;;21.38;10.63;;;9.90;99.90;;;;;;5044986;28;20049;-71
2021/05/30 02:42:13;;;;;;;24.25;10.43;;;9.90;99.90;;;;;;5045407;28;20045;-71
2021/05/30 02:44:39;;;;;;;17.95;8.93;;;9.80;99.90;;;;;;5045701;28;20060;-70
2021/05/30 02:47:05;;;;;;;28.02;8.88;;;9.80;99.90;;;;;;5045667;28;20052;-71
2021/05/30 02:49:33;;;;;;;22.80;9.35;;;9.70;99.90;;;;;;5045348;28;20042;-72
2021/05/30 02:51:59;;;;;;;20.15;8.82;;;9.70;99.90;;;;;;5045503;28;20042;-71
2021/05/30 02:54:25;;;;;;;18.52;9.38;;;9.70;99.90;;;;;;5044311;28;20105;-71
2021/05/30 02:56:51;;;;;;;27.15;10.48;;;9.80;99.90;;;;;;5045361;28;20054;-70
2021/05/30 02:59:17;;;;;;;18.05;9.75;;;9.80;99.90;;;;;;5045375;28;20049;-71
2021/05/30 03:01:43;;;;;;;20.45;9.15;;;9.80;99.90;;;;;;5044838;28;20061;-71
2021/05/30 03:04:09;;;;;;;22.48;9.75;;;9.70;99.90;;;;;;5045146;28;20045;-71
2021/05/30 03:06:35;;;;;;;23.48;9.60;;;9.80;99.90;;;;;;5044906;28;20116;-70
2021/05/30 03:09:01;;;;;;;24.27;9.82;;;9.80;99.90;;;;;;5044527;28;20046;-70
2021/05/30 03:11:27;;;;;;;19.95;10.68;;;9.80;99.90;;;;;;5045207;28;20141;-70
2021/05/30 03:13:54;;;;;;;20.98;9.15;;;9.80;99.90;;;;;;5045036;28;20042;-71
2021/05/30 03:16:20;;;;;;;23.42;10.70;;;9.80;99.90;;;;;;5044603;28;20060;-71
2021/05/30 03:18:46;;;;;;;19.50;9.90;;;9.80;99.90;;;;;;5030873;28;20072;-70
2021/05/30 03:21:14;;;;;;;18.30;9.68;;;9.80;99.90;;;;;;5044994;28;20041;-70
2021/05/30 03:23:40;;;;;;;;;;;9.80;99.90;;;;;;5044883;28;20129;-70
2021/05/30 03:26:06;;;;;;;30.48;12.52;;;9.70;99.90;;;;;;5045223;28;19925;-71
2021/05/30 03:28:32;;;;;;;31.48;11.88;;;9.70;99.90;;;;;;5044327;28;20064;-71
2021/05/30 03:30:57;;;;;;;27.35;12.45;;;9.60;99.90;;;;;;5043944;28;20033;-71
2021/05/30 03:33:23;;;;;;;31.13;11.50;;;9.60;99.90;;;;;;5045217;28;20049;-70
2021/05/30 03:35:50;;;;;;;20.35;11.27;;;9.70;99.90;;;;;;5044647;28;20076;-70
2021/05/30 03:38:18;;;;;;;28.67;11.73;;;9.70;99.90;;;;;;5044502;28;20054;-71
2021/05/30 03:40:48;;;;;;;26.98;11.52;;;9.70;99.90;;;;;;5043971;28;20068;-70
2021/05/30 03:43:15;;;;;;;27.20;12.18;;;9.70;99.90;;;;;;5044468;28;20120;-70
2021/05/30 03:45:41;;;;;;;26.15;11.95;;;9.70;99.90;;;;;;5044621;28;20038;-70
2021/05/30 03:48:07;;;;;;;26.05;11.45;;;9.70;99.90;;;;;;5044294;28;20061;-70
2021/05/30 03:50:34;;;;;;;30.40;11.77;;;9.70;99.90;;;;;;5044122;28;20049;-70
2021/05/30 03:53:00;;;;;;;25.95;11.38;;;9.70;99.90;;;;;;5042867;28;20041;-70
2021/05/30 03:55:26;;;;;;;26.27;11.48;;;9.70;99.90;;;;;;5043690;28;20045;-70
2021/05/30 03:57:53;;;;;;;28.60;11.98;;;9.70;99.90;;;;;;5043985;28;20132;-71
2021/05/30 04:00:19;;;;;;;23.60;12.18;;;9.70;99.90;;;;;;5044421;28;20073;-72
2021/05/30 04:02:47;;;;;;;21.90;10.90;;;9.70;99.90;;;;;;5043933;28;20038;-69
2021/05/30 04:05:14;;;;;;;24.98;11.05;;;9.70;99.90;;;;;;5044111;28;20046;-72
2021/05/30 04:07:41;;;;;;;22.47;10.90;;;9.70;99.90;;;;;;5043535;28;20041;-73
2021/05/30 04:10:10;;;;;;;28.48;12.20;;;9.70;99.90;;;;;;5043460;28;20045;-70
2021/05/30 04:12:37;;;;;;;26.05;11.25;;;9.70;99.90;;;;;;5044045;28;20052;-71
2021/05/30 04:15:05;;;;;;;25.10;11.45;;;9.70;99.90;;;;;;5043081;28;20045;-71
2021/05/30 04:17:31;;;;;;;18.27;10.38;;;9.80;99.90;;;;;;5043966;28;20076;-71
2021/05/30 04:19:57;;;;;;;18.05;10.45;;;9.80;99.90;;;;;;5043344;28;20049;-71
2021/05/30 04:22:22;;;;;;;28.67;11.70;;;9.90;99.90;;;;;;5044072;28;20041;-70
2021/05/30 04:24:48;;;;;;;21.95;10.55;;;9.90;99.90;;;;;;5043349;28;20441;-70
2021/05/30 04:27:14;;;;;;;29.58;11.15;;;9.90;99.90;;;;;;5043829;28;20057;-71
2021/05/30 04:29:40;;;;;;;21.55;10.57;;;9.90;99.90;;;;;;5043877;28;20053;-71
2021/05/30 04:32:06;;;;;;;19.30;10.90;;;9.90;99.90;;;;;;5043583;28;20599;-70
2021/05/30 04:34:32;;;;;;;23.50;10.98;;;10.00;99.90;;;;;;5043491;28;20052;-72
2021/05/30 04:36:58;;;;;;;30.85;11.77;;;9.90;99.90;;;;;;5059007;28;20057;-72
2021/05/30 04:39:25;;;;;;;29.10;12.68;;;9.90;99.90;;;;;;5042913;28;20037;-71
2021/05/30 04:41:51;;;;;;;;;;;9.90;99.90;;;;;;5043882;28;20556;-72
2021/05/30 04:44:17;;;;;;;27.63;12.57;;;9.80;99.90;;;;;;5058698;28;19977;-71
2021/05/30 04:46:43;;;;;;;28.80;13.32;;;9.90;99.90;;;;;;5043427;28;20060;-72
2021/05/30 04:49:08;;;;;;;27.33;12.50;;;9.90;99.90;;;;;;5043188;28;20466;-71
2021/05/30 04:51:34;;;;;;;34.25;14.18;;;9.90;99.90;;;;;;5043513;28;20037;-71
2021/05/30 04:54:00;;;;;;;30.38;12.63;;;9.90;99.90;;;;;;5042871;28;20045;-72
2021/05/30 04:56:26;;;;;;;22.60;11.48;;;10.00;99.90;;;;;;5043199;28;20071;-71
2021/05/30 04:58:52;;;;;;;23.40;13.60;;;9.90;99.90;;;;;;5041995;28;20107;-71
2021/05/30 05:01:18;;;;;;;24.90;12.73;;;9.80;99.90;;;;;;5043316;28;20045;-72
2021/05/30 05:03:44;;;;;;;30.65;13.48;;;9.80;99.90;;;;;;5043195;28;20053;-72
2021/05/30 05:06:10;;;;;;;26.70;12.50;;;9.90;99.90;;;;;;5042871;28;20068;-72
2021/05/30 05:08:36;;;;;;;26.73;11.77;;;9.90;99.90;;;;;;5042658;28;20056;-72
2021/05/30 05:11:03;;;;;;;24.27;11.27;;;10.00;99.90;;;;;;5043474;28;20056;-71
2021/05/30 05:13:30;;;;;;;19.40;11.73;;;9.90;99.90;;;;;;5043222;28;20049;-71
2021/05/30 05:15:56;;;;;;;27.55;12.32;;;9.90;99.90;;;;;;5043316;28;20064;-71
2021/05/30 05:18:23;;;;;;;29.45;12.18;;;9.80;99.90;;;;;;5043006;28;20056;-71
2021/05/30 05:20:50;;;;;;;23.55;12.50;;;9.90;99.90;;;;;;5042703;28;20513;-71
2021/05/30 05:23:17;;;;;;;21.50;11.60;;;10.00;99.90;;;;;;5043130;28;20049;-71
2021/05/30 05:25:47;;;;;;;21.25;11.55;;;10.10;99.90;;;;;;5044802;28;20034;-70
2021/05/30 05:28:12;;;;;;;25.80;11.45;;;10.10;99.90;;;;;;5041047;28;20072;-71
2021/05/30 05:30:38;;;;;;;16.52;10.43;;;10.00;99.90;;;;;;5046760;28;20041;-71
2021/05/30 05:33:04;;;;;;;23.02;13.18;;;10.00;99.90;;;;;;5047108;28;20037;-71
2021/05/30 05:35:30;;;;;;;27.95;12.00;;;10.00;99.90;;;;;;5046774;28;20041;-70
2021/05/30 05:37:57;;;;;;;25.23;14.65;;;10.00;99.90;;;;;;5047161;28;20052;-70
2021/05/30 05:40:24;;;;;;;31.20;16.92;;;10.00;99.90;;;;;;5046315;28;20045;-71
2021/05/30 05:42:51;;;;;;;27.65;15.40;;;9.90;99.90;;;;;;5046896;28;20056;-71
2021/05/30 05:45:17;;;;;;;23.17;17.15;;;9.90;99.90;;;;;;5046294;28;20045;-71
2021/05/30 05:47:54;;;;;;;31.75;19.50;;;10.00;99.90;;;;;;5043170;28;20105;-71
2021/05/30 05:50:22;;;;;;;40.58;18.17;;;10.10;99.90;;;;;;5046601;28;20421;-70
2021/05/30 05:52:49;;;;;;;26.75;18.73;;;10.30;99.90;;;;;;5046814;28;20109;-71
2021/05/30 05:55:16;;;;;;;32.15;18.02;;;10.40;99.90;;;;;;5046109;28;20052;-71
2021/05/30 05:57:43;;;;;;;28.73;18.88;;;10.40;99.90;;;;;;5046410;28;20060;-71
2021/05/30 06:00:13;;;;;;;29.33;17.75;;;10.30;99.90;;;;;;5046008;28;20111;-72
2021/05/30 06:02:39;;;;;;;32.72;18.35;;;10.40;99.90;;;;;;5046472;28;20052;-71
2021/05/30 06:05:06;;;;;;;28.02;17.65;;;10.50;99.90;;;;;;5046258;28;20045;-71
2021/05/30 06:07:33;;;;;;;29.13;17.30;;;10.60;99.90;;;;;;5046511;28;20053;-72
2021/05/30 06:09:59;;;;;;;32.17;17.67;;;10.60;99.90;;;;;;5045471;28;20394;-72
2021/05/30 06:12:24;;;;;;;27.52;17.13;;;10.80;99.90;;;;;;5046211;28;20049;-71
2021/05/30 06:14:51;;;;;;;33.38;16.38;;;11.10;99.90;;;;;;5045997;28;20582;-71
2021/05/30 06:17:17;;;;;;;26.27;16.50;;;11.20;99.90;;;;;;5046180;28;20045;-71
2021/05/30 06:19:42;;;;;;;30.70;16.45;;;11.40;99.90;;;;;;5046024;28;20056;-71
2021/05/30 06:22:08;;;;;;;29.10;16.63;;;11.40;99.90;;;;;;5045845;28;20060;-71
2021/05/30 06:24:35;;;;;;;27.98;15.35;;;11.50;99.90;;;;;;5045445;28;20045;-72
2021/05/30 06:27:03;;;;;;;28.67;15.40;;;11.40;99.90;;;;;;5045910;28;20065;-72
2021/05/30 06:29:30;;;;;;;24.17;14.25;;;11.40;99.90;;;;;;5045829;28;20038;-71
2021/05/30 06:31:57;;;;;;;28.02;15.45;;;11.70;99.90;;;;;;5045692;28;20137;-72
2021/05/30 06:34:23;;;;;;;34.90;15.82;;;11.90;99.90;;;;;;5045734;28;20120;-72
2021/05/30 06:36:50;;;;;;;29.15;14.95;;;12.00;99.90;;;;;;5044481;28;20052;-72
2021/05/30 06:39:16;;;;;;;24.27;14.63;;;11.90;99.90;;;;;;5045470;28;20055;-72
2021/05/30 06:41:43;;;;;;;29.50;14.90;;;12.10;99.90;;;;;;5046307;28;20045;-72
2021/05/30 06:44:09;;;;;;;27.23;15.20;;;12.30;99.90;;;;;;5045239;28;20063;-70
2021/05/30 06:46:36;;;;;;;25.58;13.00;;;12.30;99.90;;;;;;5045505;28;20361;-71
2021/05/30 06:49:03;;;;;;;23.03;13.67;;;12.30;99.90;;;;;;5045118;28;20425;-72
2021/05/30 06:51:30;;;;;;;23.05;12.80;;;12.40;99.90;;;;;;5045670;28;20041;-73
2021/05/30 06:53:58;;;;;;;23.70;12.55;;;12.50;99.90;;;;;;5045143;28;20068;-72
2021/05/30 06:56:24;;;;;;;20.90;12.23;;;12.80;99.90;;;;;;5045262;28;20041;-72
2021/05/30 06:58:50;;;;;;;26.63;12.88;;;13.10;99.90;;;;;;5045204;28;20072;-73
2021/05/30 07:01:18;;;;;;;21.48;11.73;;;13.40;99.90;;;;;;5045058;28;20056;-72
2021/05/30 07:03:45;;;;;;;22.83;11.77;;;13.50;99.90;;;;;;5045164;28;20052;-73
2021/05/30 07:06:11;;;;;;;22.45;11.00;;;13.30;99.90;;;;;;5045260;28;20046;-72
2021/05/30 07:08:58;;;;;;;24.83;10.80;;;12.90;99.90;;;;;;5057405;28;20134;-72
2021/05/30 07:11:23;;;;;;;21.88;10.95;;;12.70;99.90;;;;;;5044282;28;20072;-72
2021/05/30 07:13:49;;;;;;;20.35;10.05;;;12.70;99.90;;;;;;5044609;28;20049;-72
2021/05/30 07:16:15;;;;;;;18.65;10.68;;;13.10;99.90;;;;;;5044829;28;20041;-72
2021/05/30 07:18:41;;;;;;;20.08;10.95;;;13.30;99.90;;;;;;5044789;28;20038;-72
2021/05/30 07:21:07;;;;;;;23.77;11.38;;;13.30;99.90;;;;;;5044683;28;20109;-72
2021/05/30 07:23:35;;;;;;;17.55;10.00;;;13.30;99.90;;;;;;5044700;28;20041;-71
2021/05/30 07:26:01;;;;;;;23.05;10.73;;;13.50;99.90;;;;;;5042035;28;20045;-71
2021/05/30 07:28:27;;;;;;;23.13;10.98;;;13.10;99.90;;;;;;5044879;28;20064;-71
2021/05/30 07:30:53;;;;;;;20.88;9.88;;;13.20;99.90;;;;;;5045113;28;20417;-72
2021/05/30 07:33:19;;;;;;;25.40;10.77;;;13.50;99.90;;;;;;5045077;28;20068;-71
2021/05/30 07:35:45;;;;;;;18.15;10.43;;;13.40;99.90;;;;;;5044607;28;20041;-72
2021/05/30 07:38:11;;;;;;;19.27;10.00;;;13.60;99.90;;;;;;5044774;28;20047;-72
2021/05/30 07:40:37;;;;;;;19.20;10.25;;;14.00;99.90;;;;;;5044064;28;20493;-73
2021/05/30 07:43:03;;;;;;;22.40;10.30;;;13.90;99.90;;;;;;5044752;28;20041;-72
2021/05/30 07:45:34;;;;;;;19.55;9.60;;;14.20;99.90;;;;;;5044668;28;20072;-72
2021/05/30 07:48:00;;;;;;;20.88;9.60;;;13.90;99.90;;;;;;5043993;28;20049;-72
2021/05/30 07:50:26;;;;;;;18.77;9.65;;;13.50;99.90;;;;;;5043926;28;20049;-72
2021/05/30 07:52:53;;;;;;;22.38;9.45;;;13.50;99.90;;;;;;5044644;28;20057;-73
2021/05/30 07:55:19;;;;;;;20.83;9.05;;;13.80;99.90;;;;;;5044310;28;20052;-72
2021/05/30 07:57:46;;;;;;;17.60;8.70;;;13.80;99.90;;;;;;5044327;28;20157;-73
2021/05/30 08:00:15;;;;;;;16.88;9.02;;;14.00;99.90;;;;;;5044608;28;20057;-73
2021/05/30 08:02:42;;;;;;;16.63;8.85;;;13.90;99.90;;;;;;5044625;28;20428;-73
2021/05/30 08:05:10;;;;;;;16.63;9.40;;;14.10;99.90;;;;;;5044174;28;20060;-73
2021/05/30 08:07:37;;;;;;;17.02;9.63;;;14.20;99.90;;;;;;5044295;28;20068;-73
2021/05/30 08:10:05;;;;;;;20.53;9.10;;;14.20;99.90;;;;;;5043733;28;20049;-70
2021/05/30 08:12:31;;;;;;;18.35;7.72;;;14.40;99.90;;;;;;5042264;28;20037;-71
2021/05/30 08:14:57;;;;;;;19.02;8.40;;;14.50;99.90;;;;;;5039981;28;20110;-79
2021/05/30 08:17:23;;;;;;;16.40;9.48;;;14.40;99.90;;;;;;5041599;28;20041;-74
2021/05/30 08:19:50;;;;;;;13.02;7.05;;;14.10;99.90;;;;;;5041697;28;20109;-75
2021/05/30 08:22:17;;;;;;;17.15;8.75;;;14.10;99.90;;;;;;5042060;28;20060;-71
2021/05/30 08:24:44;;;;;;;18.50;8.65;;;14.30;99.90;;;;;;5041148;28;20041;-73
2021/05/30 08:27:09;;;;;;;14.63;7.40;;;14.50;99.90;;;;;;5042463;28;20048;-76
2021/05/30 08:29:36;;;;;;;17.80;7.65;;;14.80;99.90;;;;;;5037680;28;20037;-71
2021/05/30 08:32:03;;;;;;;16.77;7.82;;;15.00;99.90;;;;;;5038800;28;20128;-73
2021/05/30 08:34:29;;;;;;;19.48;7.65;;;15.10;99.90;;;;;;5038209;28;20042;-72
2021/05/30 08:36:55;;;;;;;21.08;9.02;;;15.20;99.90;;;;;;5038841;28;20067;-72
2021/05/30 08:39:22;;;;;;;17.20;8.38;;;14.70;99.90;;;;;;5037729;28;20052;-72
2021/05/30 08:41:48;;;;;;;12.00;7.40;;;14.40;99.90;;;;;;5043204;28;20049;-66
2021/05/30 08:44:14;;;;;;;16.80;7.65;;;14.20;99.90;;;;;;5038777;28;20151;-65
2021/05/30 08:46:41;;;;;;;16.77;7.75;;;14.50;99.90;;;;;;5042652;28;20041;-65
2021/05/30 08:49:07;;;;;;;16.75;8.20;;;14.30;99.90;;;;;;5032697;28;20053;-67
2021/05/30 08:51:38;;;;;;;17.02;7.15;;;14.60;99.90;;;;;;5029582;28;20041;-67
2021/05/30 08:54:15;;;;;;;18.35;7.72;;;14.70;99.90;;;;;;5042572;28;20046;-68
2021/05/30 08:56:42;;;;;;;16.27;7.28;;;15.10;99.90;;;;;;5029438;28;20056;-66
2021/05/30 08:59:41;;;;;;;19.80;8.50;;;14.80;99.90;;;;;;5042697;28;20087;-66
2021/05/30 09:02:12;;;;;;;13.98;5.93;;;14.80;99.90;;;;;;5043016;28;20049;-68
2021/05/30 09:04:41;;;;;;;12.18;6.30;;;15.00;99.90;;;;;;5040147;28;20084;-68
2021/05/30 09:07:08;;;;;;;33.83;9.32;;;15.00;99.90;;;;;;5033381;28;20481;-65
2021/05/30 09:09:45;;;;;;;13.05;7.32;;;14.80;99.90;;;;;;5041206;28;20041;-67
2021/05/30 09:12:29;;;;;;;18.48;8.55;;;14.80;99.90;;;;;;5042982;28;20048;-66
2021/05/30 09:14:56;;;;;;;11.77;6.35;;;14.50;99.90;;;;;;5041231;28;20077;-66
2021/05/30 09:17:26;;;;;;;15.20;6.35;;;14.70;99.90;;;;;;5041356;28;20041;-66
2021/05/30 09:19:59;;;;;;;12.63;7.22;;;14.80;99.90;;;;;;5042617;28;20390;-69
2021/05/30 09:22:33;;;;;;;18.33;7.65;;;15.00;99.90;;;;;;5030876;28;20037;-68
2021/05/30 09:25:09;;;;;;;12.27;6.75;;;15.00;99.90;;;;;;5037357;28;20045;-71
2021/05/30 09:27:44;;;;;;;16.40;7.20;;;15.30;99.90;;;;;;5039877;28;20095;-70
2021/05/30 09:30:13;;;;;;;17.05;8.00;;;15.50;99.90;;;;;;5042327;28;20072;-71
2021/05/30 09:32:54;;;;;;;13.90;6.93;;;15.30;99.90;;;;;;5043640;28;20042;-69
2021/05/30 09:35:45;;;;;;;15.98;6.75;;;15.30;99.90;;;;;;5043189;28;20057;-68
2021/05/30 09:38:23;;;;;;;16.83;6.82;;;15.40;99.90;;;;;;5043548;28;20045;-66
2021/05/30 09:40:54;;;;;;;16.02;7.00;;;15.70;99.90;;;;;;5042713;28;20059;-71
2021/05/30 09:43:21;;;;;;;11.95;6.60;;;15.70;99.90;;;;;;5042721;28;20107;-70
2021/05/30 09:46:01;;;;;;;13.48;7.50;;;15.80;99.90;;;;;;5042294;28;20057;-68
2021/05/30 09:48:27;;;;;;;12.63;6.03;;;15.80;99.90;;;;;;5042587;28;20061;-75
2021/05/30 09:51:07;;;;;;;14.25;6.68;;;15.80;99.90;;;;;;5043166;28;20109;-76
2021/05/30 09:53:42;;;;;;;13.85;6.03;;;15.80;99.90;;;;;;5035278;28;20041;-74
2021/05/30 09:56:34;;;;;;;12.95;6.15;;;15.80;99.90;;;;;;5038432;28;20046;-77
2021/05/30 09:59:02;;;;;;;11.73;5.65;;;15.80;99.90;;;;;;5047360;28;20045;-78
2021/05/30 10:01:28;;;;;;;;;;;15.70;99.90;;;;;;5044268;28;20045;-69
2021/05/30 10:03:54;;;;;;;11.60;5.40;;;15.90;99.90;;;;;;5042342;28;20158;-71
2021/05/30 10:06:20;;;;;;;14.13;6.82;;;16.00;99.90;;;;;;5042417;28;20063;-72
2021/05/30 10:08:47;;;;;;;11.40;6.13;;;16.00;99.90;;;;;;5038744;28;20107;-69
2021/05/30 10:11:17;;;;;;;11.05;5.22;;;16.20;99.90;;;;;;5034217;28;20076;-70
2021/05/30 10:13:42;;;;;;;15.73;6.70;;;16.20;99.90;;;;;;5045907;28;20558;-71
2021/05/30 10:16:09;;;;;;;16.30;5.80;;;15.90;99.90;;;;;;5043966;28;20096;-71
2021/05/30 10:18:47;;;;;;;16.92;6.03;;;16.00;99.90;;;;;;5039837;28;20045;-69
2021/05/30 10:21:16;;;;;;;9.63;5.55;;;16.00;99.90;;;;;;5043038;28;20045;-70
2021/05/30 10:23:43;;;;;;;10.45;5.38;;;16.20;99.90;;;;;;5045392;28;20052;-74
2021/05/30 10:26:15;;;;;;;13.95;5.30;;;16.30;99.90;;;;;;5042023;28;20049;-73
2021/05/30 10:29:09;;;;;;;20.40;5.72;;;16.40;99.90;;;;;;5041396;28;20505;-78
2021/05/30 10:31:37;;;;;;;12.88;5.80;;;16.50;99.90;;;;;;5040136;28;20037;-75
2021/05/30 10:34:14;;;;;;;12.77;6.00;;;16.60;99.90;;;;;;5044934;28;20049;-75
2021/05/30 10:36:43;;;;;;;11.18;5.55;;;16.50;99.90;;;;;;5043665;28;20624;-67
2021/05/30 10:39:32;;;;;;;17.08;6.03;;;16.30;99.90;;;;;;5034601;28;20047;-64
2021/05/30 10:42:16;;;;;;;10.73;5.38;;;16.20;99.90;;;;;;5038718;28;20035;-67
2021/05/30 10:44:52;;;;;;;13.18;4.50;;;16.40;99.90;;;;;;5038299;28;20130;-71
2021/05/30 10:47:18;;;;;;;14.65;5.50;;;16.60;99.90;;;;;;5044254;28;20041;-70
2021/05/30 10:50:11;;;;;;;14.48;5.68;;;16.60;99.90;;;;;;5044213;28;20041;-67
2021/05/30 10:52:40;;;;;;;15.43;6.75;;;17.00;99.90;;;;;;5044793;28;20079;-66
2021/05/30 10:55:25;;;;;;;16.38;6.90;;;16.80;99.90;;;;;;5045128;28;20049;-70
2021/05/30 10:57:51;;;;;;;12.00;6.00;;;16.80;99.90;;;;;;5039349;28;20046;-72
2021/05/30 11:00:17;;;;;;;15.15;6.57;;;17.10;99.90;;;;;;5039560;28;20072;-72
2021/05/30 11:03:07;;;;;;;13.10;6.13;;;16.90;99.90;;;;;;5040575;28;20045;-69
2021/05/30 11:05:46;;;;;;;16.02;6.50;;;16.90;99.90;;;;;;5038370;28;20049;-77
2021/05/30 11:11:24;;;;;;;15.27;6.10;;;16.90;99.90;;;;;;5041995;28;20797;-76
2021/05/30 11:13:54;;;;;;;20.40;7.40;;;17.00;99.90;;;;;;5037117;28;20045;-76
2021/05/30 11:16:21;;;;;;;14.00;7.72;;;17.00;99.90;;;;;;5038848;28;20065;-79
2021/05/30 11:19:17;;;;;;;14.90;6.70;;;17.10;99.90;;;;;;5041316;28;20065;-77
2021/05/30 11:21:51;;;;;;;18.63;8.32;;;17.00;99.90;;;;;;5044720;28;20310;-76
2021/05/30 11:24:22;;;;;;;13.23;7.43;;;17.40;99.90;;;;;;5041873;28;20068;-76
2021/05/30 11:27:05;;;;;;;14.15;7.20;;;17.60;99.90;;;;;;5042977;28;20664;-77
2021/05/30 11:29:32;;;;;;;12.05;7.35;;;17.70;99.90;;;;;;5045165;28;20533;-75
2021/05/30 11:32:02;;;;;;;13.40;7.32;;;17.50;99.90;;;;;;5043390;28;20045;-77
2021/05/30 11:34:33;;;;;;;18.20;7.32;;;17.50;99.90;;;;;;5042531;28;20045;-77
2021/05/30 11:37:07;;;;;;;10.40;6.15;;;17.90;99.90;;;;;;5031687;28;20045;-77
2021/05/30 11:39:43;;;;;;;15.15;6.18;;;18.80;99.90;;;;;;5038417;28;20053;-77
2021/05/30 11:42:10;;;;;;;12.80;6.28;;;19.10;99.90;;;;;;5044786;28;20420;-78
2021/05/30 11:44:36;;;;;;;14.30;6.57;;;19.30;99.90;;;;;;5039223;28;20042;-78
2021/05/30 11:47:06;;;;;;;11.32;5.75;;;19.30;99.90;;;;;;5034046;28;20048;-77
2021/05/30 11:49:33;;;;;;;12.07;5.93;;;18.80;99.90;;;;;;5042499;28;20497;-78
2021/05/30 11:52:01;;;;;;;;;;;19.30;99.90;;;;;;5044239;28;20058;-77
2021/05/30 11:54:50;;;;;;;12.23;5.43;;;19.90;99.90;;;;;;5041371;28;19975;-77
2021/05/30 11:57:19;;;;;;;11.18;5.75;;;20.30;99.90;;;;;;5039039;28;20065;-77
2021/05/30 11:59:56;;;;;;;9.63;5.57;;;20.10;99.90;;;;;;5041539;28;20148;-77
2021/05/30 12:02:38;;;;;;;11.00;5.32;;;19.90;99.90;;;;;;5038837;28;20041;-76
2021/05/30 12:05:04;;;;;;;13.00;5.63;;;20.70;99.90;;;;;;5035504;28;20045;-77
2021/05/30 12:07:30;;;;;;;11.48;5.00;;;19.80;99.90;;;;;;5043105;28;20097;-78
2021/05/30 12:09:59;;;;;;;11.73;5.60;;;20.10;99.90;;;;;;5032946;28;20056;-77
2021/05/30 12:12:44;;;;;;;13.38;5.30;;;20.00;99.90;;;;;;5041919;28;20042;-76
2021/05/30 12:15:12;;;;;;;11.38;5.40;;;19.70;99.90;;;;;;5030922;28;20092;-76
2021/05/30 12:17:43;;;;;;;9.48;5.40;;;19.90;99.90;;;;;;5033004;28;21048;-76
2021/05/30 12:20:20;;;;;;;9.65;4.82;;;20.10;99.90;;;;;;5039414;28;20049;-71
2021/05/30 12:22:46;;;;;;;13.98;5.07;;;19.70;99.90;;;;;;5036286;28;20053;-72
2021/05/30 12:25:12;;;;;;;12.35;5.75;;;20.10;99.90;;;;;;5037486;28;20037;-77
2021/05/30 12:27:39;;;;;;;8.10;4.72;;;20.20;99.90;;;;;;5038234;28;20045;-73
2021/05/30 12:30:06;;;;;;;12.50;5.90;;;19.60;99.90;;;;;;5038924;28;20097;-67
2021/05/30 12:32:32;;;;;;;15.30;5.50;;;19.30;99.90;;;;;;5043481;28;20049;-69
2021/05/30 12:34:57;;;;;;;13.77;5.15;;;19.10;99.90;;;;;;5031952;28;20052;-67
2021/05/30 12:37:43;;;;;;;9.52;4.97;;;19.10;99.90;;;;;;5036195;28;20066;-70
2021/05/30 12:40:13;;;;;;;12.70;5.13;;;20.40;99.90;;;;;;5036534;28;20112;-69
2021/05/30 12:42:40;;;;;;;11.15;4.95;;;19.60;99.90;;;;;;5038916;28;20100;-73
2021/05/30 12:45:09;;;;;;;12.82;5.60;;;19.60;99.90;;;;;;5037755;28;20057;-75
2021/05/30 12:47:43;;;;;;;14.27;5.95;;;19.70;99.90;;;;;;5042298;28;20046;-75